JST119 YSSY-NFFN
Flight info
| Callsign | JST119 |
|---|---|
| Flight time | 3h 47m |
| Altitude | 37000 |
| Route | NOBAR A579 TUTMU |
| Aircraft | A21N/M-SADE3FGHIJ3J4J5M1RWYZ/LB1D1 |
Departure
| Time | 2026-04-30 02:22 |
|---|---|
| Airport | Sydney Kingsford Smith International Airport (YSSY) |
Arrival
| Time | 2026-04-30 06:10 |
|---|---|
| Airport | Nadi International Airport (NFFN) |
| Time | Latitude | Longitude | Altitude | Speed | Heading |
|---|---|---|---|---|---|
| 2026-04-30 01:40 | -33.93934 | 151.16686 | 36 ft | 0 kts | 262° |
| 2026-04-30 02:11 | -33.93932 | 151.16701 | 35 ft | 4 kts | 261° |
| 2026-04-30 02:12 | -33.93927 | 151.16733 | 35 ft | 4 kts | 255° |
| 2026-04-30 02:12 | -33.93917 | 151.16760 | 35 ft | 4 kts | 220° |
| 2026-04-30 02:12 | -33.93905 | 151.16766 | 35 ft | 1 kts | 165° |
| 2026-04-30 02:12 | -33.93929 | 151.16775 | 35 ft | 4 kts | 162° |
| 2026-04-30 02:13 | -33.93955 | 151.16784 | 35 ft | 3 kts | 164° |
| 2026-04-30 02:13 | -33.93958 | 151.16785 | 35 ft | 0 kts | 164° |
| 2026-04-30 02:16 | -33.93960 | 151.16786 | 35 ft | 3 kts | 165° |
| 2026-04-30 02:16 | -33.94016 | 151.16804 | 35 ft | 11 kts | 165° |
| 2026-04-30 02:16 | -33.94055 | 151.16871 | 35 ft | 13 kts | 75° |
| 2026-04-30 02:16 | -33.94028 | 151.16981 | 35 ft | 15 kts | 73° |
| 2026-04-30 02:17 | -33.93997 | 151.17109 | 35 ft | 17 kts | 74° |
| 2026-04-30 02:17 | -33.94018 | 151.17238 | 35 ft | 19 kts | 165° |
| 2026-04-30 02:17 | -33.94148 | 151.17270 | 34 ft | 20 kts | 168° |
| 2026-04-30 02:17 | -33.94286 | 151.17306 | 35 ft | 21 kts | 168° |
| 2026-04-30 02:18 | -33.94435 | 151.17344 | 36 ft | 22 kts | 167° |
| 2026-04-30 02:18 | -33.94592 | 151.17384 | 36 ft | 24 kts | 167° |
| 2026-04-30 02:18 | -33.94758 | 151.17429 | 35 ft | 25 kts | 168° |
| 2026-04-30 02:18 | -33.94931 | 151.17474 | 35 ft | 26 kts | 168° |
| 2026-04-30 02:19 | -33.95114 | 151.17521 | 35 ft | 27 kts | 168° |
| 2026-04-30 02:19 | -33.95304 | 151.17570 | 35 ft | 29 kts | 168° |
| 2026-04-30 02:19 | -33.95503 | 151.17621 | 35 ft | 30 kts | 168° |
| 2026-04-30 02:19 | -33.95711 | 151.17676 | 36 ft | 31 kts | 168° |
| 2026-04-30 02:20 | -33.95928 | 151.17732 | 35 ft | 32 kts | 168° |
| 2026-04-30 02:20 | -33.96145 | 151.17789 | 36 ft | 32 kts | 169° |
| 2026-04-30 02:20 | -33.96349 | 151.17841 | 35 ft | 22 kts | 167° |
| 2026-04-30 02:20 | -33.96441 | 151.17947 | 35 ft | 21 kts | 84° |
| 2026-04-30 02:21 | -33.96364 | 151.18052 | 35 ft | 18 kts | 342° |
| 2026-04-30 02:21 | -33.96130 | 151.17989 | 32 ft | 66 kts | 348° |
| 2026-04-30 02:21 | -33.95449 | 151.17812 | 34 ft | 132 kts | 348° |
| 2026-04-30 02:21 | -33.94370 | 151.17531 | 39 ft | 183 kts | 348° |
| 2026-04-30 02:22 | -33.93103 | 151.17202 | 556 ft | 187 kts | 348° |
| 2026-04-30 02:22 | -33.91881 | 151.16848 | 1355 ft | 183 kts | 340° |
| 2026-04-30 02:22 | -33.90869 | 151.15899 | 1992 ft | 193 kts | 307° |
| 2026-04-30 02:22 | -33.90148 | 151.14475 | 2742 ft | 205 kts | 303° |
| 2026-04-30 02:23 | -33.89419 | 151.12928 | 3400 ft | 222 kts | 303° |
| 2026-04-30 02:23 | -33.88633 | 151.11260 | 4100 ft | 239 kts | 301° |
| 2026-04-30 02:23 | -33.88120 | 151.09260 | 4629 ft | 265 kts | 275° |
| 2026-04-30 02:23 | -33.88414 | 151.07035 | 5406 ft | 276 kts | 248° |
| 2026-04-30 02:24 | -33.89421 | 151.05053 | 6303 ft | 280 kts | 228° |
| 2026-04-30 02:24 | -33.90977 | 151.03656 | 7188 ft | 282 kts | 202° |
| 2026-04-30 02:24 | -33.92881 | 151.03147 | 8031 ft | 283 kts | 178° |
| 2026-04-30 02:24 | -33.94788 | 151.03629 | 8928 ft | 282 kts | 153° |
| 2026-04-30 02:25 | -33.96391 | 151.04974 | 9856 ft | 283 kts | 136° |
| 2026-04-30 02:25 | -33.97748 | 151.06729 | 10562 ft | 295 kts | 123° |
| 2026-04-30 02:25 | -33.98569 | 151.09069 | 10892 ft | 317 kts | 99° |
| 2026-04-30 02:25 | -33.98475 | 151.11769 | 11320 ft | 332 kts | 74° |
| 2026-04-30 02:26 | -33.97969 | 151.13529 | 11789 ft | 337 kts | 68° |
| 2026-04-30 02:26 | -33.97077 | 151.16160 | 12601 ft | 342 kts | 67° |
| 2026-04-30 02:26 | -33.96179 | 151.18838 | 13408 ft | 347 kts | 67° |
| 2026-04-30 02:26 | -33.95287 | 151.21571 | 14083 ft | 354 kts | 68° |
| 2026-04-30 02:27 | -33.94398 | 151.24349 | 14383 ft | 356 kts | 68° |
| 2026-04-30 02:27 | -33.93516 | 151.27133 | 14479 ft | 357 kts | 68° |
| 2026-04-30 02:27 | -33.92634 | 151.29930 | 14505 ft | 357 kts | 68° |
| 2026-04-30 02:27 | -33.91753 | 151.32725 | 14867 ft | 358 kts | 68° |
| 2026-04-30 02:28 | -33.90866 | 151.35544 | 15550 ft | 362 kts | 68° |
| 2026-04-30 02:28 | -33.89664 | 151.39364 | 16537 ft | 367 kts | 69° |
| 2026-04-30 02:28 | -33.89062 | 151.41271 | 17014 ft | 369 kts | 69° |
| 2026-04-30 02:28 | -33.88144 | 151.44177 | 17728 ft | 373 kts | 69° |
| 2026-04-30 02:29 | -33.87216 | 151.47110 | 18431 ft | 377 kts | 70° |
| 2026-04-30 02:29 | -33.86277 | 151.50074 | 19068 ft | 381 kts | 70° |
| 2026-04-30 02:29 | -33.85326 | 151.53066 | 19661 ft | 385 kts | 70° |
| 2026-04-30 02:29 | -33.84362 | 151.56082 | 20253 ft | 388 kts | 70° |
| 2026-04-30 02:30 | -33.83391 | 151.59127 | 20849 ft | 391 kts | 70° |
| 2026-04-30 02:30 | -33.82412 | 151.62196 | 21444 ft | 395 kts | 70° |
| 2026-04-30 02:30 | -33.81427 | 151.65295 | 22024 ft | 398 kts | 70° |
| 2026-04-30 02:30 | -33.80431 | 151.68421 | 22590 ft | 403 kts | 70° |
| 2026-04-30 02:31 | -33.79423 | 151.71578 | 23173 ft | 406 kts | 70° |
| 2026-04-30 02:31 | -33.78320 | 151.74717 | 23742 ft | 410 kts | 64° |
| 2026-04-30 02:31 | -33.76975 | 151.77752 | 24254 ft | 414 kts | 62° |
| 2026-04-30 02:31 | -33.75582 | 151.80796 | 24711 ft | 417 kts | 62° |
| 2026-04-30 02:32 | -33.74179 | 151.83855 | 25164 ft | 420 kts | 62° |
| 2026-04-30 02:32 | -33.72769 | 151.86944 | 25612 ft | 423 kts | 62° |
| 2026-04-30 02:32 | -33.71351 | 151.90050 | 26058 ft | 426 kts | 62° |
| 2026-04-30 02:32 | -33.69921 | 151.93182 | 26491 ft | 429 kts | 62° |
| 2026-04-30 02:33 | -33.68481 | 151.96334 | 26875 ft | 432 kts | 62° |
| 2026-04-30 02:33 | -33.67032 | 151.99508 | 27272 ft | 436 kts | 62° |
| 2026-04-30 02:33 | -33.65571 | 152.02707 | 27675 ft | 438 kts | 62° |
| 2026-04-30 02:33 | -33.64099 | 152.05925 | 28063 ft | 441 kts | 62° |
| 2026-04-30 02:34 | -33.62616 | 152.09164 | 28448 ft | 444 kts | 62° |
| 2026-04-30 02:34 | -33.61145 | 152.12371 | 28824 ft | 446 kts | 62° |
| 2026-04-30 02:34 | -33.59643 | 152.15643 | 29196 ft | 449 kts | 62° |
| 2026-04-30 02:34 | -33.58131 | 152.18931 | 29561 ft | 451 kts | 62° |
| 2026-04-30 02:35 | -33.56609 | 152.22238 | 29911 ft | 454 kts | 62° |
| 2026-04-30 02:35 | -33.55080 | 152.25565 | 30269 ft | 457 kts | 62° |
| 2026-04-30 02:35 | -33.53540 | 152.28905 | 30593 ft | 460 kts | 62° |
| 2026-04-30 02:35 | -33.51993 | 152.32268 | 30894 ft | 462 kts | 62° |
| 2026-04-30 02:36 | -33.50436 | 152.35641 | 31205 ft | 463 kts | 62° |
| 2026-04-30 02:36 | -33.48869 | 152.39025 | 31490 ft | 465 kts | 62° |
| 2026-04-30 02:36 | -33.47300 | 152.42425 | 31764 ft | 468 kts | 62° |
| 2026-04-30 02:36 | -33.45717 | 152.45840 | 32071 ft | 469 kts | 62° |
| 2026-04-30 02:37 | -33.44135 | 152.49246 | 32454 ft | 467 kts | 62° |
| 2026-04-30 02:37 | -33.42559 | 152.52644 | 32845 ft | 466 kts | 62° |
| 2026-04-30 02:37 | -33.40984 | 152.56035 | 33170 ft | 466 kts | 62° |
| 2026-04-30 02:37 | -33.39409 | 152.59427 | 33492 ft | 466 kts | 62° |
| 2026-04-30 02:38 | -33.37833 | 152.62812 | 33821 ft | 465 kts | 62° |
| 2026-04-30 02:38 | -33.36263 | 152.66191 | 34154 ft | 464 kts | 62° |
| 2026-04-30 02:38 | -33.34697 | 152.69560 | 34468 ft | 463 kts | 62° |
| 2026-04-30 02:38 | -33.33126 | 152.72923 | 34679 ft | 463 kts | 61° |
| 2026-04-30 02:39 | -33.31556 | 152.76288 | 34860 ft | 465 kts | 61° |
| 2026-04-30 02:39 | -33.29977 | 152.79666 | 35046 ft | 466 kts | 61° |
| 2026-04-30 02:39 | -33.28415 | 152.82998 | 35247 ft | 466 kts | 61° |
| 2026-04-30 02:39 | -33.26828 | 152.86384 | 35425 ft | 467 kts | 61° |
| 2026-04-30 02:40 | -33.25237 | 152.89778 | 35495 ft | 469 kts | 61° |
| 2026-04-30 02:40 | -33.22053 | 152.96570 | 35478 ft | 468 kts | 60° |
| 2026-04-30 02:41 | -33.18866 | 153.03346 | 35465 ft | 468 kts | 60° |
| 2026-04-30 02:41 | -33.15697 | 153.10077 | 35458 ft | 468 kts | 60° |
| 2026-04-30 02:42 | -33.12504 | 153.16859 | 35467 ft | 469 kts | 60° |
| 2026-04-30 02:42 | -33.09295 | 153.23631 | 35460 ft | 469 kts | 60° |
| 2026-04-30 02:43 | -33.06097 | 153.30413 | 35461 ft | 469 kts | 60° |
| 2026-04-30 02:43 | -33.02910 | 153.37141 | 35461 ft | 469 kts | 60° |
| 2026-04-30 02:44 | -32.99696 | 153.43900 | 35471 ft | 469 kts | 60° |
| 2026-04-30 02:44 | -32.96468 | 153.50650 | 35452 ft | 469 kts | 60° |
| 2026-04-30 02:45 | -32.93247 | 153.57392 | 35454 ft | 469 kts | 60° |
| 2026-04-30 02:45 | -32.90047 | 153.64087 | 35458 ft | 469 kts | 60° |
| 2026-04-30 02:46 | -32.86820 | 153.70827 | 35458 ft | 469 kts | 60° |
| 2026-04-30 02:46 | -32.83589 | 153.77558 | 35452 ft | 469 kts | 60° |
| 2026-04-30 02:47 | -32.80351 | 153.84289 | 35454 ft | 469 kts | 60° |
| 2026-04-30 02:47 | -32.77133 | 153.90978 | 35457 ft | 469 kts | 60° |
| 2026-04-30 02:48 | -32.73884 | 153.97704 | 35456 ft | 469 kts | 60° |
| 2026-04-30 02:48 | -32.70638 | 154.04421 | 35453 ft | 469 kts | 60° |
| 2026-04-30 02:49 | -32.67380 | 154.11136 | 35452 ft | 470 kts | 60° |
| 2026-04-30 02:49 | -32.64122 | 154.17860 | 35448 ft | 470 kts | 60° |
| 2026-04-30 02:50 | -32.60883 | 154.24528 | 35451 ft | 470 kts | 60° |
| 2026-04-30 02:50 | -32.57616 | 154.31237 | 35452 ft | 470 kts | 60° |
| 2026-04-30 02:51 | -32.54347 | 154.37944 | 35456 ft | 471 kts | 60° |
| 2026-04-30 02:51 | -32.51068 | 154.44660 | 35445 ft | 471 kts | 60° |
| 2026-04-30 02:52 | -32.47779 | 154.51372 | 35451 ft | 471 kts | 59° |
| 2026-04-30 02:52 | -32.44489 | 154.58074 | 35449 ft | 471 kts | 59° |
| 2026-04-30 02:53 | -32.41189 | 154.64776 | 35450 ft | 471 kts | 59° |
| 2026-04-30 02:53 | -32.37935 | 154.71384 | 35440 ft | 462 kts | 59° |
| 2026-04-30 02:54 | -32.34702 | 154.77936 | 35459 ft | 463 kts | 59° |
| 2026-04-30 02:54 | -32.33073 | 154.81228 | 35606 ft | 464 kts | 59° |
| 2026-04-30 02:54 | -32.31446 | 154.84527 | 35811 ft | 464 kts | 59° |
| 2026-04-30 02:54 | -32.29815 | 154.87825 | 35999 ft | 465 kts | 59° |
| 2026-04-30 02:55 | -32.28177 | 154.91129 | 36167 ft | 467 kts | 59° |
| 2026-04-30 02:55 | -32.26533 | 154.94444 | 36308 ft | 469 kts | 59° |
| 2026-04-30 02:55 | -32.24880 | 154.97773 | 36457 ft | 470 kts | 59° |
| 2026-04-30 02:55 | -32.23241 | 155.01066 | 36607 ft | 472 kts | 59° |
| 2026-04-30 02:56 | -32.21573 | 155.04420 | 36743 ft | 474 kts | 59° |
| 2026-04-30 02:56 | -32.19900 | 155.07781 | 36915 ft | 476 kts | 59° |
| 2026-04-30 02:56 | -32.18222 | 155.11150 | 37071 ft | 477 kts | 59° |
| 2026-04-30 02:56 | -32.16538 | 155.14529 | 37210 ft | 478 kts | 59° |
| 2026-04-30 02:57 | -32.14852 | 155.17917 | 37351 ft | 480 kts | 59° |
| 2026-04-30 02:57 | -32.13156 | 155.21315 | 37464 ft | 482 kts | 59° |
| 2026-04-30 02:57 | -32.11451 | 155.24723 | 37473 ft | 482 kts | 59° |
| 2026-04-30 02:58 | -32.08049 | 155.31532 | 37439 ft | 482 kts | 59° |
| 2026-04-30 02:58 | -32.04637 | 155.38334 | 37427 ft | 482 kts | 59° |
| 2026-04-30 02:59 | -32.01224 | 155.45131 | 37429 ft | 482 kts | 59° |
| 2026-04-30 02:59 | -31.97803 | 155.51927 | 37429 ft | 483 kts | 59° |
| 2026-04-30 03:00 | -31.94375 | 155.58723 | 37422 ft | 483 kts | 59° |
| 2026-04-30 03:00 | -31.90948 | 155.65527 | 37427 ft | 483 kts | 59° |
| 2026-04-30 03:01 | -31.87511 | 155.72320 | 37427 ft | 483 kts | 59° |
| 2026-04-30 03:01 | -31.84073 | 155.79109 | 37426 ft | 483 kts | 59° |
| 2026-04-30 03:02 | -31.80628 | 155.85892 | 37415 ft | 484 kts | 58° |
| 2026-04-30 03:02 | -31.77180 | 155.92685 | 37420 ft | 484 kts | 58° |
| 2026-04-30 03:03 | -31.73728 | 155.99475 | 37422 ft | 484 kts | 58° |
| 2026-04-30 03:03 | -31.68559 | 156.09591 | 37417 ft | 484 kts | 58° |
| 2026-04-30 03:04 | -31.65075 | 156.16408 | 37414 ft | 484 kts | 58° |
| 2026-04-30 03:04 | -31.61629 | 156.23135 | 37411 ft | 485 kts | 58° |
| 2026-04-30 03:05 | -31.58142 | 156.29907 | 37406 ft | 485 kts | 58° |
| 2026-04-30 03:05 | -31.54661 | 156.36682 | 37403 ft | 485 kts | 58° |
| 2026-04-30 03:06 | -31.51172 | 156.43445 | 37409 ft | 485 kts | 58° |
| 2026-04-30 03:06 | -31.47669 | 156.50195 | 37411 ft | 485 kts | 58° |
| 2026-04-30 03:07 | -31.44172 | 156.56950 | 37399 ft | 485 kts | 58° |
| 2026-04-30 03:07 | -31.40677 | 156.63702 | 37402 ft | 485 kts | 58° |
| 2026-04-30 03:08 | -31.37176 | 156.70450 | 37402 ft | 485 kts | 58° |
| 2026-04-30 03:08 | -31.33673 | 156.77188 | 37403 ft | 485 kts | 58° |
| 2026-04-30 03:09 | -31.30164 | 156.83925 | 37402 ft | 485 kts | 58° |
| 2026-04-30 03:09 | -31.26646 | 156.90651 | 37404 ft | 485 kts | 58° |
| 2026-04-30 03:10 | -31.23127 | 156.97384 | 37406 ft | 485 kts | 58° |
| 2026-04-30 03:10 | -31.19602 | 157.04112 | 37390 ft | 485 kts | 58° |
| 2026-04-30 03:11 | -31.16078 | 157.10838 | 37398 ft | 485 kts | 58° |
| 2026-04-30 03:11 | -31.12550 | 157.17550 | 37392 ft | 485 kts | 58° |
| 2026-04-30 03:12 | -31.09015 | 157.24262 | 37405 ft | 485 kts | 58° |
| 2026-04-30 03:12 | -31.05481 | 157.30974 | 37389 ft | 486 kts | 58° |
| 2026-04-30 03:13 | -31.01937 | 157.37686 | 37387 ft | 486 kts | 58° |
| 2026-04-30 03:13 | -30.98404 | 157.44348 | 37379 ft | 486 kts | 58° |
| 2026-04-30 03:14 | -30.94853 | 157.51057 | 37370 ft | 486 kts | 58° |
| 2026-04-30 03:14 | -30.91297 | 157.57757 | 37383 ft | 486 kts | 58° |
| 2026-04-30 03:15 | -30.87737 | 157.64444 | 37368 ft | 486 kts | 57° |
| 2026-04-30 03:15 | -30.84166 | 157.71143 | 37375 ft | 487 kts | 57° |
| 2026-04-30 03:16 | -30.80592 | 157.77835 | 37379 ft | 487 kts | 57° |
| 2026-04-30 03:16 | -30.77013 | 157.84525 | 37376 ft | 487 kts | 57° |
| 2026-04-30 03:17 | -30.73436 | 157.91205 | 37370 ft | 486 kts | 57° |
| 2026-04-30 03:17 | -30.69861 | 157.97874 | 37362 ft | 486 kts | 57° |
| 2026-04-30 03:18 | -30.66273 | 158.04543 | 37354 ft | 487 kts | 57° |
| 2026-04-30 03:18 | -30.62679 | 158.11223 | 37368 ft | 488 kts | 57° |
| 2026-04-30 03:19 | -30.59079 | 158.17893 | 37362 ft | 488 kts | 57° |
| 2026-04-30 03:19 | -30.55501 | 158.24507 | 37367 ft | 486 kts | 57° |
| 2026-04-30 03:20 | -30.51906 | 158.31152 | 37358 ft | 486 kts | 57° |
| 2026-04-30 03:20 | -30.48311 | 158.37794 | 37340 ft | 487 kts | 57° |
| 2026-04-30 03:21 | -30.44697 | 158.44441 | 37356 ft | 488 kts | 57° |
| 2026-04-30 03:21 | -30.41084 | 158.51092 | 37352 ft | 488 kts | 57° |
| 2026-04-30 03:22 | -30.37469 | 158.57739 | 37349 ft | 488 kts | 57° |
| 2026-04-30 03:22 | -30.33844 | 158.64376 | 37349 ft | 488 kts | 57° |
| 2026-04-30 03:23 | -30.30829 | 158.69888 | 37349 ft | 488 kts | 57° |
| 2026-04-30 03:23 | -30.27197 | 158.76519 | 37335 ft | 488 kts | 57° |
| 2026-04-30 03:24 | -30.23564 | 158.83151 | 37342 ft | 488 kts | 57° |
| 2026-04-30 03:24 | -30.19927 | 158.89774 | 37338 ft | 487 kts | 57° |
| 2026-04-30 03:25 | -30.16290 | 158.96382 | 37340 ft | 487 kts | 57° |
| 2026-04-30 03:25 | -30.12652 | 159.02988 | 37336 ft | 487 kts | 57° |
| 2026-04-30 03:26 | -30.09013 | 159.09580 | 37335 ft | 487 kts | 57° |
| 2026-04-30 03:26 | -30.05370 | 159.16176 | 37328 ft | 488 kts | 56° |
| 2026-04-30 03:27 | -30.01726 | 159.22777 | 37331 ft | 487 kts | 56° |
| 2026-04-30 03:27 | -29.98077 | 159.29359 | 37327 ft | 487 kts | 56° |
| 2026-04-30 03:28 | -29.94422 | 159.35937 | 37319 ft | 487 kts | 56° |
| 2026-04-30 03:28 | -29.90762 | 159.42502 | 37317 ft | 487 kts | 56° |
| 2026-04-30 03:29 | -29.87100 | 159.49068 | 37304 ft | 487 kts | 56° |
| 2026-04-30 03:29 | -29.83429 | 159.55642 | 37319 ft | 487 kts | 56° |
| 2026-04-30 03:30 | -29.79787 | 159.62153 | 37319 ft | 487 kts | 56° |
| 2026-04-30 03:30 | -29.76113 | 159.68701 | 37313 ft | 487 kts | 56° |
| 2026-04-30 03:31 | -29.72442 | 159.75255 | 37313 ft | 487 kts | 56° |
| 2026-04-30 03:31 | -29.68761 | 159.81802 | 37307 ft | 487 kts | 56° |
| 2026-04-30 03:32 | -29.65074 | 159.88353 | 37311 ft | 490 kts | 56° |
| 2026-04-30 03:32 | -29.61381 | 159.94901 | 37304 ft | 488 kts | 56° |
| 2026-04-30 03:33 | -29.57692 | 160.01441 | 37303 ft | 487 kts | 56° |
| 2026-04-30 03:33 | -29.54007 | 160.07968 | 37305 ft | 487 kts | 56° |
| 2026-04-30 03:34 | -29.50310 | 160.14487 | 37297 ft | 487 kts | 56° |
| 2026-04-30 03:34 | -29.46614 | 160.20999 | 37301 ft | 487 kts | 56° |
| 2026-04-30 03:35 | -29.42918 | 160.27504 | 37280 ft | 487 kts | 55° |
| 2026-04-30 03:35 | -29.39212 | 160.34013 | 37288 ft | 487 kts | 55° |
| 2026-04-30 03:36 | -29.35503 | 160.40520 | 37289 ft | 488 kts | 55° |
| 2026-04-30 03:36 | -29.31791 | 160.47021 | 37289 ft | 487 kts | 55° |
| 2026-04-30 03:37 | -29.28083 | 160.53528 | 37286 ft | 488 kts | 55° |
| 2026-04-30 03:37 | -29.24378 | 160.60014 | 37285 ft | 486 kts | 55° |
| 2026-04-30 03:38 | -29.20662 | 160.66481 | 37281 ft | 486 kts | 55° |
| 2026-04-30 03:38 | -29.16973 | 160.72908 | 37278 ft | 486 kts | 55° |
| 2026-04-30 03:39 | -29.13260 | 160.79372 | 37274 ft | 486 kts | 55° |
| 2026-04-30 03:39 | -29.09538 | 160.85830 | 37274 ft | 486 kts | 55° |
| 2026-04-30 03:40 | -29.05814 | 160.92280 | 37279 ft | 485 kts | 55° |
| 2026-04-30 03:40 | -29.02102 | 160.98719 | 37272 ft | 485 kts | 55° |
| 2026-04-30 03:41 | -28.98372 | 161.05165 | 37263 ft | 487 kts | 55° |
| 2026-04-30 03:41 | -28.94631 | 161.11611 | 37265 ft | 487 kts | 55° |
| 2026-04-30 03:42 | -28.90888 | 161.18049 | 37259 ft | 487 kts | 55° |
| 2026-04-30 03:42 | -28.87143 | 161.24492 | 37267 ft | 486 kts | 55° |
| 2026-04-30 03:43 | -28.83400 | 161.30911 | 37255 ft | 486 kts | 55° |
| 2026-04-30 03:43 | -28.79664 | 161.37324 | 37254 ft | 485 kts | 55° |
| 2026-04-30 03:44 | -28.75911 | 161.43741 | 37251 ft | 487 kts | 54° |
| 2026-04-30 03:44 | -28.72153 | 161.50163 | 37253 ft | 487 kts | 54° |
| 2026-04-30 03:45 | -28.68393 | 161.56579 | 37255 ft | 487 kts | 54° |
| 2026-04-30 03:45 | -28.64636 | 161.62988 | 37248 ft | 486 kts | 54° |
| 2026-04-30 03:46 | -28.60871 | 161.69384 | 37248 ft | 486 kts | 54° |
| 2026-04-30 03:46 | -28.57105 | 161.75769 | 37248 ft | 486 kts | 54° |
| 2026-04-30 03:47 | -28.53331 | 161.82169 | 37239 ft | 487 kts | 54° |
| 2026-04-30 03:47 | -28.49551 | 161.88568 | 37239 ft | 488 kts | 54° |
| 2026-04-30 03:48 | -28.45766 | 161.94968 | 37236 ft | 488 kts | 54° |
| 2026-04-30 03:48 | -28.41982 | 162.01363 | 37236 ft | 488 kts | 54° |
| 2026-04-30 03:49 | -28.38219 | 162.07710 | 37233 ft | 488 kts | 54° |
| 2026-04-30 03:49 | -28.34426 | 162.14090 | 37230 ft | 488 kts | 54° |
| 2026-04-30 03:50 | -28.30619 | 162.20488 | 37224 ft | 489 kts | 54° |
| 2026-04-30 03:50 | -28.26809 | 162.26883 | 37230 ft | 488 kts | 54° |
| 2026-04-30 03:51 | -28.23026 | 162.33246 | 37223 ft | 486 kts | 54° |
| 2026-04-30 03:51 | -28.19238 | 162.39598 | 37219 ft | 486 kts | 54° |
| 2026-04-30 03:52 | -28.15442 | 162.45941 | 37223 ft | 486 kts | 53° |
| 2026-04-30 03:52 | -28.11639 | 162.52279 | 37222 ft | 486 kts | 53° |
| 2026-04-30 03:53 | -28.07831 | 162.58630 | 37207 ft | 488 kts | 53° |
| 2026-04-30 03:53 | -28.04026 | 162.64960 | 37212 ft | 484 kts | 53° |
| 2026-04-30 03:54 | -28.00240 | 162.71253 | 37207 ft | 484 kts | 53° |
| 2026-04-30 03:54 | -27.96446 | 162.77535 | 37207 ft | 484 kts | 53° |
| 2026-04-30 03:55 | -27.92648 | 162.83815 | 37206 ft | 484 kts | 53° |
| 2026-04-30 03:55 | -27.88846 | 162.90087 | 37204 ft | 484 kts | 53° |
| 2026-04-30 03:56 | -27.85043 | 162.96379 | 37196 ft | 484 kts | 53° |
| 2026-04-30 03:56 | -27.81258 | 163.02627 | 37199 ft | 481 kts | 53° |
| 2026-04-30 03:57 | -27.77468 | 163.08859 | 37201 ft | 481 kts | 52° |
| 2026-04-30 03:57 | -27.73674 | 163.15087 | 37200 ft | 481 kts | 52° |
| 2026-04-30 03:58 | -27.69877 | 163.21314 | 37200 ft | 481 kts | 52° |
| 2026-04-30 03:58 | -27.66084 | 163.27537 | 37200 ft | 481 kts | 52° |
| 2026-04-30 03:59 | -27.62286 | 163.33753 | 37191 ft | 481 kts | 52° |
| 2026-04-30 03:59 | -27.58485 | 163.39971 | 37197 ft | 482 kts | 52° |
| 2026-04-30 04:00 | -27.54676 | 163.46183 | 37195 ft | 482 kts | 52° |
| 2026-04-30 04:00 | -27.50869 | 163.52388 | 37194 ft | 482 kts | 52° |
| 2026-04-30 04:01 | -27.47076 | 163.58546 | 37193 ft | 481 kts | 52° |
| 2026-04-30 04:01 | -27.43260 | 163.64741 | 37190 ft | 482 kts | 52° |
| 2026-04-30 04:02 | -27.39442 | 163.70913 | 37170 ft | 480 kts | 51° |
| 2026-04-30 04:02 | -27.35638 | 163.77073 | 37182 ft | 479 kts | 51° |
| 2026-04-30 04:03 | -27.31834 | 163.83226 | 37185 ft | 479 kts | 51° |
| 2026-04-30 04:03 | -27.28029 | 163.89376 | 37185 ft | 479 kts | 51° |
| 2026-04-30 04:04 | -27.24231 | 163.95525 | 37182 ft | 478 kts | 51° |
| 2026-04-30 04:04 | -27.20419 | 164.01656 | 37184 ft | 478 kts | 51° |
| 2026-04-30 04:05 | -27.16607 | 164.07780 | 37179 ft | 478 kts | 51° |
| 2026-04-30 04:05 | -27.12787 | 164.13919 | 37172 ft | 482 kts | 50° |
| 2026-04-30 04:06 | -27.08943 | 164.20084 | 37184 ft | 482 kts | 50° |
| 2026-04-30 04:06 | -27.05099 | 164.26250 | 37182 ft | 482 kts | 50° |
| 2026-04-30 04:07 | -27.01255 | 164.32416 | 37178 ft | 482 kts | 50° |
| 2026-04-30 04:08 | -26.95477 | 164.41638 | 37183 ft | 482 kts | 50° |
| 2026-04-30 04:08 | -26.92265 | 164.46753 | 37172 ft | 482 kts | 50° |
| 2026-04-30 04:09 | -26.88407 | 164.52896 | 37169 ft | 482 kts | 50° |
| 2026-04-30 04:09 | -26.84544 | 164.59041 | 37176 ft | 482 kts | 50° |
| 2026-04-30 04:10 | -26.80686 | 164.65179 | 37172 ft | 482 kts | 50° |
| 2026-04-30 04:10 | -26.76817 | 164.71308 | 37163 ft | 482 kts | 50° |
| 2026-04-30 04:11 | -26.72958 | 164.77419 | 37164 ft | 480 kts | 50° |
| 2026-04-30 04:11 | -26.69135 | 164.83481 | 37171 ft | 480 kts | 50° |
| 2026-04-30 04:12 | -26.65273 | 164.89575 | 37143 ft | 481 kts | 50° |
| 2026-04-30 04:12 | -26.61406 | 164.95704 | 37163 ft | 482 kts | 49° |
| 2026-04-30 04:13 | -26.57515 | 165.01809 | 37169 ft | 482 kts | 49° |
| 2026-04-30 04:13 | -26.53632 | 165.07916 | 37172 ft | 482 kts | 49° |
| 2026-04-30 04:14 | -26.49751 | 165.14013 | 37163 ft | 481 kts | 49° |
| 2026-04-30 04:14 | -26.45872 | 165.20103 | 37163 ft | 481 kts | 49° |
| 2026-04-30 04:15 | -26.41991 | 165.26191 | 37162 ft | 481 kts | 49° |
| 2026-04-30 04:15 | -26.38098 | 165.32276 | 37144 ft | 483 kts | 49° |
| 2026-04-30 04:16 | -26.34201 | 165.38379 | 37161 ft | 483 kts | 49° |
| 2026-04-30 04:16 | -26.30301 | 165.44472 | 37161 ft | 483 kts | 49° |
| 2026-04-30 04:17 | -26.26390 | 165.50558 | 37158 ft | 482 kts | 49° |
| 2026-04-30 04:17 | -26.22482 | 165.56633 | 37157 ft | 482 kts | 49° |
| 2026-04-30 04:18 | -26.18609 | 165.62672 | 37160 ft | 482 kts | 49° |
| 2026-04-30 04:18 | -26.14695 | 165.68737 | 37135 ft | 482 kts | 49° |
| 2026-04-30 04:19 | -26.10781 | 165.74806 | 37152 ft | 483 kts | 49° |
| 2026-04-30 04:19 | -26.06863 | 165.80876 | 37157 ft | 483 kts | 48° |
| 2026-04-30 04:20 | -26.02943 | 165.86945 | 37153 ft | 483 kts | 49° |
| 2026-04-30 04:20 | -25.99018 | 165.93009 | 37153 ft | 483 kts | 48° |
| 2026-04-30 04:21 | -25.95087 | 165.99065 | 37156 ft | 483 kts | 48° |
| 2026-04-30 04:21 | -25.91157 | 166.05121 | 37157 ft | 483 kts | 48° |
| 2026-04-30 04:22 | -25.87217 | 166.11176 | 37134 ft | 486 kts | 48° |
| 2026-04-30 04:22 | -25.83256 | 166.17266 | 37148 ft | 487 kts | 48° |
| 2026-04-30 04:23 | -25.79279 | 166.23358 | 37151 ft | 487 kts | 48° |
| 2026-04-30 04:23 | -25.75308 | 166.29444 | 37151 ft | 487 kts | 48° |
| 2026-04-30 04:24 | -25.71331 | 166.35530 | 37147 ft | 487 kts | 48° |
| 2026-04-30 04:24 | -25.67354 | 166.41618 | 37144 ft | 487 kts | 49° |
| 2026-04-30 04:25 | -25.63394 | 166.47718 | 37145 ft | 487 kts | 48° |
| 2026-04-30 04:25 | -25.59416 | 166.53805 | 37133 ft | 488 kts | 48° |
| 2026-04-30 04:26 | -25.55422 | 166.59875 | 37141 ft | 488 kts | 48° |
| 2026-04-30 04:26 | -25.51425 | 166.65945 | 37136 ft | 488 kts | 48° |
| 2026-04-30 04:27 | -25.47436 | 166.72019 | 37141 ft | 488 kts | 48° |
| 2026-04-30 04:27 | -25.43463 | 166.78038 | 37137 ft | 488 kts | 48° |
| 2026-04-30 04:28 | -25.39464 | 166.84100 | 37135 ft | 488 kts | 48° |
| 2026-04-30 04:28 | -25.35461 | 166.90142 | 37118 ft | 486 kts | 46° |
| 2026-04-30 04:29 | -25.31473 | 166.96131 | 37130 ft | 483 kts | 46° |
| 2026-04-30 04:29 | -25.27492 | 167.02118 | 37132 ft | 484 kts | 47° |
| 2026-04-30 04:30 | -25.23515 | 167.08109 | 37130 ft | 484 kts | 47° |
| 2026-04-30 04:30 | -25.19534 | 167.14097 | 37134 ft | 484 kts | 47° |
| 2026-04-30 04:31 | -25.15549 | 167.20081 | 37127 ft | 484 kts | 47° |
| 2026-04-30 04:31 | -25.11570 | 167.26064 | 37122 ft | 483 kts | 46° |
| 2026-04-30 04:32 | -25.07590 | 167.32037 | 37107 ft | 483 kts | 46° |
| 2026-04-30 04:32 | -25.03606 | 167.38005 | 37121 ft | 483 kts | 46° |
| 2026-04-30 04:33 | -24.99616 | 167.43964 | 37122 ft | 483 kts | 46° |
| 2026-04-30 04:33 | -24.95625 | 167.49921 | 37118 ft | 483 kts | 46° |
| 2026-04-30 04:34 | -24.91638 | 167.55885 | 37117 ft | 483 kts | 46° |
| 2026-04-30 04:34 | -24.87640 | 167.61836 | 37116 ft | 483 kts | 46° |
| 2026-04-30 04:35 | -24.83642 | 167.67792 | 37115 ft | 484 kts | 46° |
| 2026-04-30 04:35 | -24.79635 | 167.73744 | 37098 ft | 484 kts | 46° |
| 2026-04-30 04:36 | -24.75633 | 167.79695 | 37105 ft | 484 kts | 46° |
| 2026-04-30 04:36 | -24.71617 | 167.85631 | 37107 ft | 484 kts | 46° |
| 2026-04-30 04:37 | -24.67606 | 167.91572 | 37118 ft | 484 kts | 46° |
| 2026-04-30 04:37 | -24.63593 | 167.97510 | 37114 ft | 483 kts | 46° |
| 2026-04-30 04:38 | -24.59610 | 168.03383 | 37100 ft | 482 kts | 46° |
| 2026-04-30 04:38 | -24.55603 | 168.09293 | 37112 ft | 482 kts | 46° |
| 2026-04-30 04:39 | -24.51597 | 168.15203 | 37097 ft | 482 kts | 45° |
| 2026-04-30 04:39 | -24.47584 | 168.21096 | 37109 ft | 482 kts | 45° |
| 2026-04-30 04:40 | -24.43575 | 168.26992 | 37105 ft | 482 kts | 45° |
| 2026-04-30 04:40 | -24.39571 | 168.32891 | 37090 ft | 482 kts | 45° |
| 2026-04-30 04:41 | -24.35576 | 168.38770 | 37105 ft | 480 kts | 45° |
| 2026-04-30 04:41 | -24.31577 | 168.44627 | 37106 ft | 480 kts | 45° |
| 2026-04-30 04:42 | -24.27572 | 168.50486 | 37105 ft | 480 kts | 45° |
| 2026-04-30 04:42 | -24.23560 | 168.56337 | 37106 ft | 480 kts | 45° |
| 2026-04-30 04:43 | -24.19548 | 168.62191 | 37103 ft | 481 kts | 45° |
| 2026-04-30 04:43 | -24.15532 | 168.68045 | 37103 ft | 480 kts | 45° |
| 2026-04-30 04:44 | -24.11528 | 168.73891 | 37099 ft | 479 kts | 45° |
| 2026-04-30 04:44 | -24.07519 | 168.79710 | 37097 ft | 478 kts | 44° |
| 2026-04-30 04:45 | -24.03509 | 168.85524 | 37097 ft | 479 kts | 44° |
| 2026-04-30 04:45 | -23.99503 | 168.91337 | 37097 ft | 478 kts | 44° |
| 2026-04-30 04:46 | -23.95489 | 168.97152 | 37085 ft | 480 kts | 44° |
| 2026-04-30 04:46 | -23.91470 | 169.02970 | 37092 ft | 480 kts | 44° |
| 2026-04-30 04:47 | -23.87455 | 169.08786 | 37092 ft | 479 kts | 44° |
| 2026-04-30 04:47 | -23.83435 | 169.14593 | 37092 ft | 479 kts | 44° |
| 2026-04-30 04:48 | -23.79415 | 169.20397 | 37097 ft | 479 kts | 44° |
| 2026-04-30 04:48 | -23.75389 | 169.26189 | 37091 ft | 479 kts | 44° |
| 2026-04-30 04:49 | -23.71360 | 169.31977 | 37088 ft | 479 kts | 44° |
| 2026-04-30 04:49 | -23.67328 | 169.37760 | 37076 ft | 479 kts | 44° |
| 2026-04-30 04:50 | -23.63290 | 169.43547 | 37080 ft | 479 kts | 44° |
| 2026-04-30 04:50 | -23.59283 | 169.49289 | 37087 ft | 479 kts | 44° |
| 2026-04-30 04:51 | -23.55245 | 169.55067 | 37085 ft | 479 kts | 44° |
| 2026-04-30 04:51 | -23.51210 | 169.60848 | 37082 ft | 479 kts | 44° |
| 2026-04-30 04:52 | -23.47166 | 169.66615 | 37085 ft | 479 kts | 44° |
| 2026-04-30 04:52 | -23.43125 | 169.72380 | 37085 ft | 479 kts | 44° |
| 2026-04-30 04:53 | -23.39082 | 169.78136 | 37063 ft | 477 kts | 44° |
| 2026-04-30 04:53 | -23.35051 | 169.83871 | 37074 ft | 476 kts | 44° |
| 2026-04-30 04:54 | -23.31023 | 169.89600 | 37078 ft | 477 kts | 44° |
| 2026-04-30 04:54 | -23.26994 | 169.95320 | 37078 ft | 477 kts | 44° |
| 2026-04-30 04:55 | -23.22974 | 170.01056 | 37081 ft | 477 kts | 44° |
| 2026-04-30 04:55 | -23.18946 | 170.06776 | 37081 ft | 476 kts | 43° |
| 2026-04-30 04:56 | -23.14913 | 170.12490 | 37079 ft | 476 kts | 43° |
| 2026-04-30 04:56 | -23.11573 | 170.17207 | 37050 ft | 476 kts | 44° |
| 2026-04-30 04:57 | -23.07554 | 170.22914 | 37069 ft | 475 kts | 43° |
| 2026-04-30 04:57 | -23.03528 | 170.28604 | 37075 ft | 475 kts | 43° |
| 2026-04-30 04:58 | -22.99496 | 170.34279 | 37079 ft | 475 kts | 43° |
| 2026-04-30 04:58 | -22.95462 | 170.39946 | 37081 ft | 474 kts | 43° |
| 2026-04-30 04:59 | -22.91426 | 170.45614 | 37075 ft | 475 kts | 43° |
| 2026-04-30 04:59 | -22.87397 | 170.51282 | 37078 ft | 474 kts | 43° |
| 2026-04-30 05:00 | -22.83363 | 170.56943 | 37072 ft | 474 kts | 43° |
| 2026-04-30 05:00 | -22.79360 | 170.62554 | 37072 ft | 473 kts | 43° |
| 2026-04-30 05:01 | -22.75334 | 170.68197 | 37079 ft | 473 kts | 43° |
| 2026-04-30 05:01 | -22.71303 | 170.73831 | 37077 ft | 473 kts | 43° |
| 2026-04-30 05:02 | -22.67275 | 170.79469 | 37075 ft | 473 kts | 43° |
| 2026-04-30 05:02 | -22.63243 | 170.85099 | 37077 ft | 473 kts | 43° |
| 2026-04-30 05:03 | -22.59211 | 170.90730 | 37080 ft | 473 kts | 43° |
| 2026-04-30 05:03 | -22.55178 | 170.96353 | 37076 ft | 473 kts | 43° |
| 2026-04-30 05:04 | -22.51140 | 171.01963 | 37060 ft | 473 kts | 43° |
| 2026-04-30 05:04 | -22.47098 | 171.07579 | 37074 ft | 473 kts | 43° |
| 2026-04-30 05:05 | -22.43055 | 171.13196 | 37071 ft | 473 kts | 43° |
| 2026-04-30 05:05 | -22.39009 | 171.18807 | 37073 ft | 473 kts | 43° |
| 2026-04-30 05:06 | -22.32932 | 171.27224 | 37068 ft | 474 kts | 43° |
| 2026-04-30 05:06 | -22.28879 | 171.32838 | 37067 ft | 474 kts | 43° |
| 2026-04-30 05:07 | -22.24821 | 171.38453 | 37070 ft | 474 kts | 43° |
| 2026-04-30 05:07 | -22.20765 | 171.44055 | 37056 ft | 473 kts | 42° |
| 2026-04-30 05:08 | -22.16709 | 171.49646 | 37064 ft | 473 kts | 43° |
| 2026-04-30 05:08 | -22.12683 | 171.55197 | 37063 ft | 473 kts | 42° |
| 2026-04-30 05:09 | -22.08623 | 171.60776 | 37055 ft | 473 kts | 42° |
| 2026-04-30 05:09 | -22.04568 | 171.66360 | 37045 ft | 473 kts | 43° |
| 2026-04-30 05:10 | -22.00502 | 171.71944 | 37054 ft | 474 kts | 43° |
| 2026-04-30 05:10 | -21.96429 | 171.77530 | 37050 ft | 474 kts | 43° |
| 2026-04-30 05:11 | -21.92353 | 171.83114 | 37032 ft | 474 kts | 43° |
| 2026-04-30 05:11 | -21.88270 | 171.88711 | 37048 ft | 476 kts | 43° |
| 2026-04-30 05:12 | -21.84173 | 171.94292 | 37049 ft | 475 kts | 43° |
| 2026-04-30 05:12 | -21.80068 | 171.99876 | 37045 ft | 476 kts | 43° |
| 2026-04-30 05:13 | -21.75977 | 172.05479 | 37047 ft | 476 kts | 43° |
| 2026-04-30 05:13 | -21.71884 | 172.11076 | 37044 ft | 476 kts | 43° |
| 2026-04-30 05:14 | -21.67774 | 172.16669 | 37044 ft | 476 kts | 43° |
| 2026-04-30 05:14 | -21.63671 | 172.22252 | 37046 ft | 476 kts | 43° |
| 2026-04-30 05:15 | -21.59564 | 172.27830 | 37035 ft | 477 kts | 43° |
| 2026-04-30 05:15 | -21.55446 | 172.33416 | 37044 ft | 477 kts | 43° |
| 2026-04-30 05:16 | -21.51325 | 172.39001 | 37045 ft | 477 kts | 43° |
| 2026-04-30 05:16 | -21.47193 | 172.44586 | 37040 ft | 479 kts | 43° |
| 2026-04-30 05:17 | -21.43048 | 172.50186 | 37045 ft | 479 kts | 43° |
| 2026-04-30 05:17 | -21.38905 | 172.55786 | 37045 ft | 480 kts | 44° |
| 2026-04-30 05:18 | -21.34761 | 172.61396 | 37041 ft | 479 kts | 43° |
| 2026-04-30 05:18 | -21.30606 | 172.66991 | 37042 ft | 479 kts | 43° |
| 2026-04-30 05:19 | -21.26458 | 172.72592 | 37040 ft | 480 kts | 43° |
| 2026-04-30 05:19 | -21.22305 | 172.78186 | 37041 ft | 479 kts | 43° |
| 2026-04-30 05:20 | -21.18152 | 172.83764 | 37040 ft | 479 kts | 43° |
| 2026-04-30 05:20 | -21.13998 | 172.89345 | 37038 ft | 479 kts | 43° |
| 2026-04-30 05:21 | -21.09878 | 172.94892 | 37039 ft | 479 kts | 43° |
| 2026-04-30 05:21 | -21.05725 | 173.00469 | 37038 ft | 479 kts | 43° |
| 2026-04-30 05:22 | -21.01554 | 173.06026 | 37040 ft | 479 kts | 43° |
| 2026-04-30 05:22 | -20.97389 | 173.11599 | 37026 ft | 480 kts | 43° |
| 2026-04-30 05:23 | -20.93208 | 173.17181 | 37031 ft | 481 kts | 43° |
| 2026-04-30 05:23 | -20.89023 | 173.22772 | 37036 ft | 482 kts | 43° |
| 2026-04-30 05:24 | -20.84842 | 173.28359 | 37032 ft | 480 kts | 43° |
| 2026-04-30 05:24 | -20.80661 | 173.33933 | 37036 ft | 481 kts | 43° |
| 2026-04-30 05:25 | -20.76478 | 173.39509 | 37034 ft | 481 kts | 43° |
| 2026-04-30 05:25 | -20.72291 | 173.45073 | 37033 ft | 481 kts | 43° |
| 2026-04-30 05:26 | -20.68102 | 173.50642 | 37004 ft | 481 kts | 43° |
| 2026-04-30 05:26 | -20.63911 | 173.56208 | 37019 ft | 481 kts | 44° |
| 2026-04-30 05:27 | -20.59713 | 173.61774 | 37025 ft | 481 kts | 44° |
| 2026-04-30 05:27 | -20.55543 | 173.67305 | 37026 ft | 482 kts | 44° |
| 2026-04-30 05:28 | -20.51338 | 173.72868 | 37027 ft | 481 kts | 43° |
| 2026-04-30 05:28 | -20.47138 | 173.78426 | 37024 ft | 481 kts | 43° |
| 2026-04-30 05:29 | -20.42942 | 173.83976 | 37026 ft | 481 kts | 43° |
| 2026-04-30 05:29 | -20.38736 | 173.89523 | 37026 ft | 481 kts | 43° |
| 2026-04-30 05:30 | -20.34535 | 173.95066 | 37010 ft | 481 kts | 44° |
| 2026-04-30 05:30 | -20.30322 | 174.00613 | 37022 ft | 481 kts | 44° |
| 2026-04-30 05:31 | -20.26112 | 174.06155 | 37023 ft | 481 kts | 44° |
| 2026-04-30 05:31 | -20.21899 | 174.11699 | 37021 ft | 481 kts | 44° |
| 2026-04-30 05:32 | -20.17682 | 174.17239 | 37020 ft | 481 kts | 44° |
| 2026-04-30 05:32 | -20.13466 | 174.22775 | 37020 ft | 482 kts | 44° |
| 2026-04-30 05:33 | -20.09246 | 174.28313 | 37018 ft | 481 kts | 44° |
| 2026-04-30 05:33 | -20.05024 | 174.33840 | 37017 ft | 481 kts | 44° |
| 2026-04-30 05:34 | -20.00794 | 174.39379 | 37016 ft | 483 kts | 44° |
| 2026-04-30 05:34 | -19.96549 | 174.44928 | 37019 ft | 484 kts | 44° |
| 2026-04-30 05:35 | -19.92300 | 174.50473 | 37023 ft | 484 kts | 44° |
| 2026-04-30 05:35 | -19.88052 | 174.56020 | 37023 ft | 484 kts | 44° |
| 2026-04-30 05:36 | -19.83835 | 174.61527 | 37015 ft | 484 kts | 44° |
| 2026-04-30 05:36 | -19.79583 | 174.67063 | 37009 ft | 484 kts | 44° |
| 2026-04-30 05:37 | -19.75335 | 174.72593 | 37015 ft | 483 kts | 44° |
| 2026-04-30 05:37 | -19.71090 | 174.78112 | 36996 ft | 483 kts | 44° |
| 2026-04-30 05:38 | -19.66838 | 174.83634 | 37004 ft | 484 kts | 44° |
| 2026-04-30 05:38 | -19.62582 | 174.89163 | 37003 ft | 484 kts | 44° |
| 2026-04-30 05:39 | -19.58323 | 174.94683 | 37003 ft | 484 kts | 44° |
| 2026-04-30 05:39 | -19.54061 | 175.00202 | 37005 ft | 484 kts | 44° |
| 2026-04-30 05:40 | -19.49799 | 175.05721 | 37008 ft | 483 kts | 44° |
| 2026-04-30 05:40 | -19.45540 | 175.11227 | 36998 ft | 483 kts | 44° |
| 2026-04-30 05:41 | -19.41278 | 175.16733 | 36999 ft | 483 kts | 44° |
| 2026-04-30 05:41 | -19.37016 | 175.22235 | 36993 ft | 483 kts | 44° |
| 2026-04-30 05:42 | -19.32747 | 175.27739 | 36994 ft | 484 kts | 44° |
| 2026-04-30 05:42 | -19.28479 | 175.33241 | 36995 ft | 484 kts | 44° |
| 2026-04-30 05:43 | -19.24209 | 175.38741 | 36996 ft | 483 kts | 44° |
| 2026-04-30 05:43 | -19.20661 | 175.43311 | 36994 ft | 483 kts | 45° |
| 2026-04-30 05:44 | -19.16394 | 175.48794 | 36994 ft | 483 kts | 44° |
| 2026-04-30 05:44 | -19.12120 | 175.54276 | 36994 ft | 483 kts | 45° |
| 2026-04-30 05:45 | -19.07846 | 175.59760 | 36993 ft | 483 kts | 45° |
| 2026-04-30 05:45 | -19.03574 | 175.65239 | 36930 ft | 479 kts | 45° |
| 2026-04-30 05:46 | -19.01453 | 175.67953 | 36575 ft | 481 kts | 45° |
| 2026-04-30 05:46 | -18.99319 | 175.70682 | 36295 ft | 482 kts | 45° |
| 2026-04-30 05:46 | -18.97184 | 175.73415 | 35814 ft | 481 kts | 45° |
| 2026-04-30 05:46 | -18.95051 | 175.76144 | 35188 ft | 482 kts | 45° |
| 2026-04-30 05:47 | -18.92916 | 175.78873 | 34502 ft | 482 kts | 45° |
| 2026-04-30 05:47 | -18.90776 | 175.81608 | 33785 ft | 483 kts | 45° |
| 2026-04-30 05:47 | -18.88635 | 175.84343 | 33021 ft | 484 kts | 46° |
| 2026-04-30 05:47 | -18.86488 | 175.87083 | 32291 ft | 485 kts | 46° |
| 2026-04-30 05:48 | -18.84333 | 175.89836 | 31583 ft | 486 kts | 46° |
| 2026-04-30 05:48 | -18.82179 | 175.92587 | 30933 ft | 486 kts | 46° |
| 2026-04-30 05:48 | -18.80032 | 175.95335 | 30311 ft | 485 kts | 46° |
| 2026-04-30 05:48 | -18.77883 | 175.98081 | 29633 ft | 484 kts | 46° |
| 2026-04-30 05:49 | -18.75739 | 176.00811 | 28912 ft | 483 kts | 46° |
| 2026-04-30 05:49 | -18.73597 | 176.03533 | 28241 ft | 480 kts | 46° |
| 2026-04-30 05:49 | -18.71472 | 176.06233 | 27607 ft | 477 kts | 47° |
| 2026-04-30 05:49 | -18.69363 | 176.08912 | 26970 ft | 472 kts | 47° |
| 2026-04-30 05:50 | -18.67303 | 176.11528 | 26328 ft | 467 kts | 47° |
| 2026-04-30 05:50 | -18.65238 | 176.14149 | 25709 ft | 462 kts | 47° |
| 2026-04-30 05:50 | -18.63198 | 176.16739 | 25111 ft | 456 kts | 47° |
| 2026-04-30 05:50 | -18.61181 | 176.19298 | 24510 ft | 452 kts | 47° |
| 2026-04-30 05:51 | -18.59182 | 176.21833 | 23886 ft | 448 kts | 47° |
| 2026-04-30 05:51 | -18.57206 | 176.24352 | 23231 ft | 444 kts | 48° |
| 2026-04-30 05:51 | -18.55251 | 176.26845 | 22557 ft | 438 kts | 48° |
| 2026-04-30 05:51 | -18.53321 | 176.29302 | 21909 ft | 433 kts | 48° |
| 2026-04-30 05:52 | -18.51408 | 176.31731 | 21271 ft | 428 kts | 48° |
| 2026-04-30 05:52 | -18.49514 | 176.34121 | 20694 ft | 422 kts | 47° |
| 2026-04-30 05:52 | -18.47644 | 176.36478 | 20124 ft | 416 kts | 47° |
| 2026-04-30 05:52 | -18.45797 | 176.38804 | 19567 ft | 411 kts | 47° |
| 2026-04-30 05:53 | -18.43980 | 176.41100 | 19032 ft | 405 kts | 48° |
| 2026-04-30 05:53 | -18.42194 | 176.43370 | 18530 ft | 399 kts | 47° |
| 2026-04-30 05:53 | -18.40436 | 176.45605 | 17999 ft | 393 kts | 47° |
| 2026-04-30 05:53 | -18.38695 | 176.47799 | 17460 ft | 387 kts | 48° |
| 2026-04-30 05:54 | -18.36984 | 176.49958 | 16943 ft | 381 kts | 48° |
| 2026-04-30 05:54 | -18.35301 | 176.52085 | 16463 ft | 375 kts | 49° |
| 2026-04-30 05:54 | -18.33644 | 176.54177 | 15981 ft | 370 kts | 49° |
| 2026-04-30 05:54 | -18.32006 | 176.56240 | 15514 ft | 364 kts | 49° |
| 2026-04-30 05:55 | -18.30394 | 176.58274 | 15083 ft | 361 kts | 49° |
| 2026-04-30 05:55 | -18.28784 | 176.60302 | 14637 ft | 362 kts | 49° |
| 2026-04-30 05:55 | -18.27169 | 176.62336 | 14182 ft | 363 kts | 50° |
| 2026-04-30 05:55 | -18.25548 | 176.64377 | 13707 ft | 364 kts | 50° |
| 2026-04-30 05:56 | -18.23922 | 176.66426 | 13211 ft | 365 kts | 50° |
| 2026-04-30 05:56 | -18.22295 | 176.68478 | 12752 ft | 365 kts | 50° |
| 2026-04-30 05:56 | -18.20673 | 176.70524 | 12287 ft | 364 kts | 50° |
| 2026-04-30 05:56 | -18.19059 | 176.72556 | 11807 ft | 359 kts | 50° |
| 2026-04-30 05:57 | -18.17470 | 176.74552 | 11374 ft | 353 kts | 50° |
| 2026-04-30 05:57 | -18.15910 | 176.76515 | 10973 ft | 347 kts | 51° |
| 2026-04-30 05:57 | -18.14384 | 176.78433 | 10714 ft | 336 kts | 51° |
| 2026-04-30 05:57 | -18.12908 | 176.80286 | 10524 ft | 324 kts | 51° |
| 2026-04-30 05:58 | -18.11489 | 176.82068 | 10384 ft | 312 kts | 51° |
| 2026-04-30 05:58 | -18.10132 | 176.83800 | 10205 ft | 302 kts | 54° |
| 2026-04-30 05:58 | -18.09116 | 176.85708 | 9788 ft | 299 kts | 67° |
| 2026-04-30 05:58 | -18.08304 | 176.87719 | 9372 ft | 298 kts | 69° |
| 2026-04-30 05:59 | -18.07514 | 176.89712 | 8998 ft | 293 kts | 69° |
| 2026-04-30 05:59 | -18.06732 | 176.91666 | 8628 ft | 288 kts | 69° |
| 2026-04-30 05:59 | -18.05956 | 176.93588 | 8271 ft | 285 kts | 68° |
| 2026-04-30 05:59 | -18.05177 | 176.95509 | 7957 ft | 286 kts | 68° |
| 2026-04-30 06:00 | -18.04400 | 176.97412 | 7656 ft | 281 kts | 69° |
| 2026-04-30 06:00 | -18.03635 | 176.99289 | 7319 ft | 278 kts | 68° |
| 2026-04-30 06:00 | -18.02875 | 177.01150 | 6997 ft | 275 kts | 69° |
| 2026-04-30 06:00 | -18.02124 | 177.02988 | 6688 ft | 272 kts | 69° |
| 2026-04-30 06:01 | -18.01381 | 177.04805 | 6352 ft | 270 kts | 69° |
| 2026-04-30 06:01 | -18.00644 | 177.06607 | 6008 ft | 267 kts | 69° |
| 2026-04-30 06:01 | -17.99915 | 177.08388 | 5669 ft | 266 kts | 69° |
| 2026-04-30 06:01 | -17.99183 | 177.10165 | 5355 ft | 265 kts | 69° |
| 2026-04-30 06:02 | -17.98466 | 177.11903 | 5070 ft | 260 kts | 69° |
| 2026-04-30 06:02 | -17.97752 | 177.13639 | 4731 ft | 258 kts | 69° |
| 2026-04-30 06:02 | -17.97043 | 177.15363 | 4396 ft | 257 kts | 70° |
| 2026-04-30 06:02 | -17.96333 | 177.17091 | 4062 ft | 258 kts | 69° |
| 2026-04-30 06:03 | -17.95624 | 177.18817 | 3740 ft | 258 kts | 69° |
| 2026-04-30 06:03 | -17.94918 | 177.20535 | 3437 ft | 255 kts | 69° |
| 2026-04-30 06:03 | -17.94216 | 177.22246 | 3130 ft | 254 kts | 70° |
| 2026-04-30 06:03 | -17.93595 | 177.23929 | 3007 ft | 240 kts | 75° |
| 2026-04-30 06:04 | -17.93101 | 177.25547 | 2986 ft | 225 kts | 76° |
| 2026-04-30 06:04 | -17.92655 | 177.27060 | 2989 ft | 210 kts | 76° |
| 2026-04-30 06:04 | -17.92206 | 177.28594 | 3015 ft | 229 kts | 77° |
| 2026-04-30 06:05 | -17.90806 | 177.31632 | 3016 ft | 228 kts | 56° |
| 2026-04-30 06:05 | -17.89759 | 177.32817 | 2937 ft | 217 kts | 47° |
| 2026-04-30 06:05 | -17.88587 | 177.33777 | 2710 ft | 212 kts | 39° |
| 2026-04-30 06:05 | -17.87437 | 177.34696 | 2448 ft | 206 kts | 41° |
| 2026-04-30 06:06 | -17.86318 | 177.35599 | 2192 ft | 199 kts | 42° |
| 2026-04-30 06:06 | -17.85254 | 177.36459 | 2007 ft | 188 kts | 43° |
| 2026-04-30 06:06 | -17.84235 | 177.37284 | 1759 ft | 182 kts | 43° |
| 2026-04-30 06:06 | -17.83268 | 177.38067 | 1526 ft | 169 kts | 44° |
| 2026-04-30 06:07 | -17.82376 | 177.38790 | 1273 ft | 155 kts | 42° |
| 2026-04-30 06:07 | -17.81581 | 177.39432 | 1079 ft | 134 kts | 43° |
| 2026-04-30 06:07 | -17.80846 | 177.40028 | 926 ft | 132 kts | 40° |
| 2026-04-30 06:07 | -17.80110 | 177.40624 | 764 ft | 134 kts | 38° |
| 2026-04-30 06:08 | -17.79375 | 177.41220 | 610 ft | 134 kts | 37° |
| 2026-04-30 06:08 | -17.78635 | 177.41809 | 442 ft | 134 kts | 37° |
| 2026-04-30 06:08 | -17.77903 | 177.42409 | 245 ft | 134 kts | 37° |
| 2026-04-30 06:08 | -17.77163 | 177.43002 | 60 ft | 133 kts | 37° |
| 2026-04-30 06:09 | -17.76487 | 177.43545 | 50 ft | 108 kts | 39° |
| 2026-04-30 06:09 | -17.76024 | 177.43920 | 53 ft | 69 kts | 36° |
| 2026-04-30 06:09 | -17.75688 | 177.44191 | 56 ft | 57 kts | 37° |
| 2026-04-30 06:09 | -17.75391 | 177.44430 | 55 ft | 50 kts | 39° |
| 2026-04-30 06:10 | -17.75171 | 177.44606 | 56 ft | 24 kts | 37° |
| 2026-04-30 06:10 | -17.75114 | 177.44713 | 55 ft | 20 kts | 107° |
| 2026-04-30 06:10 | -17.75150 | 177.44858 | 57 ft | 18 kts | 103° |
| 2026-04-30 06:10 | -17.75182 | 177.44973 | 56 ft | 12 kts | 113° |
| 2026-04-30 06:11 | -17.75200 | 177.45024 | 57 ft | 0 kts | 108° |